Time;durP1;ratioP1;P1;durP2;ratioP2;P2;SDS_P1;SDS_P2;PMS_P1;PMS_P2;Temp;Humidity;BMP_temperature;BMP_pressure;BME280_temperature;BME280_humidity;BME280_pressure;Samples;Min_cycle;Max_cycle;Signal;HPM_P1;HPM_P2
2021/08/12 00:01:07;;;;;;;;;;;25.00;53.40;;;;;;487804;244;1409;-69
2021/08/12 00:03:08;;;;;;;;;;;24.60;53.70;;;;;;488132;243;1060;-69
2021/08/12 00:05:10;;;;;;;;;;;25.00;53.50;;;;;;487888;244;1149;-69
2021/08/12 00:07:11;;;;;;;;;;;24.80;53.70;;;;;;487932;243;1154;-69
2021/08/12 00:09:12;;;;;;;;;;;24.70;53.60;;;;;;487910;244;1047;-69
2021/08/12 00:11:14;;;;;;;;;;;25.10;53.30;;;;;;487879;243;2190;-69
2021/08/12 00:13:15;;;;;;;;;;;24.70;54.00;;;;;;487821;244;1346;-70
2021/08/12 00:15:16;;;;;;;;;;;24.70;53.70;;;;;;487853;244;1076;-70
2021/08/12 00:17:18;;;;;;;;;;;24.80;53.50;;;;;;487810;244;1203;-69
2021/08/12 00:19:19;;;;;;;;;;;24.60;53.90;;;;;;487863;244;1080;-69
2021/08/12 00:21:20;;;;;;;;;;;24.80;53.50;;;;;;487900;244;1191;-69
2021/08/12 00:23:22;;;;;;;;;;;24.80;53.50;;;;;;487906;244;1185;-69
2021/08/12 00:25:23;;;;;;;;;;;24.70;53.90;;;;;;487845;244;1055;-69
2021/08/12 00:27:24;;;;;;;;;;;24.60;53.50;;;;;;487958;243;1204;-69
2021/08/12 00:29:26;;;;;;;;;;;24.70;54.00;;;;;;487922;244;1057;-70
2021/08/12 00:31:27;;;;;;;;;;;24.50;54.40;;;;;;488053;243;2193;-69
2021/08/12 00:33:28;;;;;;;;;;;24.60;53.80;;;;;;487902;244;1050;-69
2021/08/12 00:35:30;;;;;;;;;;;24.80;53.50;;;;;;488159;243;1191;-70
2021/08/12 00:37:31;;;;;;;;;;;24.60;54.10;;;;;;487847;243;1081;-70
2021/08/12 00:39:32;;;;;;;;;;;24.40;54.30;;;;;;487955;244;1046;-69
2021/08/12 00:41:36;;;;;;;;;;;24.90;53.60;;;;;;487846;244;1114;-69
2021/08/12 00:43:37;;;;;;;;;;;24.60;54.40;;;;;;487997;243;1084;-69
2021/08/12 00:45:38;;;;;;;;;;;24.70;53.60;;;;;;487879;244;1129;-69
2021/08/12 00:47:40;;;;;;;;;;;24.70;53.60;;;;;;487895;243;1192;-69
2021/08/12 00:49:41;;;;;;;;;;;24.80;53.60;;;;;;487893;244;1056;-69
2021/08/12 00:51:42;;;;;;;;;;;24.90;53.30;;;;;;487836;243;2174;-69
2021/08/12 00:53:43;;;;;;;;;;;25.10;53.00;;;;;;487940;243;1034;-69
2021/08/12 00:55:45;;;;;;;;;;;25.00;53.00;;;;;;487908;244;1046;-69
2021/08/12 00:57:46;;;;;;;;;;;25.00;53.00;;;;;;487851;243;1042;-70
2021/08/12 00:59:48;;;;;;;;;;;25.00;53.00;;;;;;487870;244;1085;-70
2021/08/12 01:01:49;;;;;;;;;;;24.80;53.20;;;;;;487976;243;1167;-70
2021/08/12 01:03:50;;;;;;;;;;;25.00;52.90;;;;;;487876;244;1191;-70
2021/08/12 01:05:52;;;;;;;;;;;25.10;52.90;;;;;;488176;243;1149;-69
2021/08/12 01:07:53;;;;;;;;;;;25.00;53.10;;;;;;487836;244;1115;-69
2021/08/12 01:09:54;;;;;;;;;;;24.90;53.00;;;;;;487902;244;966;-69
2021/08/12 01:11:57;;;;;;;;;;;24.90;53.20;;;;;;487867;243;2197;-69
2021/08/12 01:13:58;;;;;;;;;;;24.80;53.10;;;;;;488119;244;1379;-69
2021/08/12 01:15:59;;;;;;;;;;;24.90;53.00;;;;;;488276;243;1116;-69
2021/08/12 01:18:00;;;;;;;;;;;25.10;53.00;;;;;;488037;243;1091;-69
2021/08/12 01:20:02;;;;;;;;;;;24.90;53.00;;;;;;488010;243;1025;-69
2021/08/12 01:22:03;;;;;;;;;;;25.10;52.60;;;;;;487838;244;1163;-69
2021/08/12 01:24:04;;;;;;;;;;;25.10;52.70;;;;;;488070;243;1152;-69
2021/08/12 01:26:06;;;;;;;;;;;25.10;52.60;;;;;;488026;243;1387;-69
2021/08/12 01:28:07;;;;;;;;;;;25.10;52.50;;;;;;487887;243;1128;-69
2021/08/12 01:30:08;;;;;;;;;;;24.90;52.90;;;;;;487858;244;1101;-69
2021/08/12 01:32:10;;;;;;;;;;;24.90;52.80;;;;;;487972;243;2197;-70
2021/08/12 01:34:11;;;;;;;;;;;24.90;53.10;;;;;;487952;243;1065;-69
2021/08/12 01:36:12;;;;;;;;;;;24.90;52.90;;;;;;488055;243;1295;-69
2021/08/12 01:38:14;;;;;;;;;;;24.90;52.90;;;;;;487925;243;1227;-69
2021/08/12 01:40:15;;;;;;;;;;;24.60;53.80;;;;;;488048;243;1314;-69
2021/08/12 01:42:16;;;;;;;;;;;24.80;53.50;;;;;;487969;243;1124;-69
2021/08/12 01:44:17;;;;;;;;;;;24.90;52.90;;;;;;487817;244;1081;-69
2021/08/12 01:46:19;;;;;;;;;;;25.00;52.80;;;;;;487819;243;1350;-69
2021/08/12 01:48:20;;;;;;;;;;;24.70;53.30;;;;;;487886;244;1230;-69
2021/08/12 01:50:21;;;;;;;;;;;24.90;53.00;;;;;;488128;243;1085;-69
2021/08/12 01:52:23;;;;;;;;;;;24.90;52.90;;;;;;487857;244;2157;-69
2021/08/12 01:54:24;;;;;;;;;;;25.00;52.70;;;;;;487947;243;1101;-69
2021/08/12 01:56:26;;;;;;;;;;;25.10;52.70;;;;;;488092;243;1046;-69
2021/08/12 01:58:28;;;;;;;;;;;24.80;53.00;;;;;;488020;243;1141;-69
2021/08/12 02:00:30;;;;;;;;;;;24.70;53.30;;;;;;487912;244;1267;-69
2021/08/12 02:02:30;;;;;;;;;;;24.70;53.40;;;;;;487880;243;1418;-69
2021/08/12 02:04:31;;;;;;;;;;;24.70;53.60;;;;;;487953;244;1055;-69
2021/08/12 02:06:33;;;;;;;;;;;24.70;53.50;;;;;;487964;243;1188;-69
2021/08/12 02:08:34;;;;;;;;;;;24.60;53.40;;;;;;488134;243;1351;-69
2021/08/12 02:10:35;;;;;;;;;;;24.70;53.50;;;;;;488377;243;1052;-70
2021/08/12 02:12:37;;;;;;;;;;;24.50;53.80;;;;;;488233;243;2146;-69
2021/08/12 02:14:39;;;;;;;;;;;24.60;53.60;;;;;;487833;244;1042;-69
2021/08/12 02:16:39;;;;;;;;;;;24.40;54.00;;;;;;488249;244;1379;-70
2021/08/12 02:18:41;;;;;;;;;;;24.50;54.00;;;;;;488254;243;1219;-69
2021/08/12 02:20:42;;;;;;;;;;;24.60;53.50;;;;;;487913;243;998;-69
2021/08/12 02:22:43;;;;;;;;;;;24.70;53.40;;;;;;487843;243;1223;-69
2021/08/12 02:24:45;;;;;;;;;;;24.60;53.50;;;;;;487896;244;1161;-69
2021/08/12 02:26:46;;;;;;;;;;;24.70;53.30;;;;;;487818;244;1171;-70
2021/08/12 02:28:47;;;;;;;;;;;24.50;54.00;;;;;;487810;244;1091;-69
2021/08/12 02:30:49;;;;;;;;;;;24.50;53.70;;;;;;487967;243;1060;-69
2021/08/12 02:32:50;;;;;;;;;;;24.40;53.70;;;;;;487767;244;2196;-69
2021/08/12 02:34:53;;;;;;;;;;;24.80;53.40;;;;;;488122;243;1097;-69
2021/08/12 02:36:54;;;;;;;;;;;24.20;54.20;;;;;;488056;243;1246;-69
2021/08/12 02:38:56;;;;;;;;;;;24.40;53.90;;;;;;487746;244;1041;-69
2021/08/12 02:40:57;;;;;;;;;;;24.70;53.10;;;;;;487758;244;1069;-69
2021/08/12 02:42:58;;;;;;;;;;;24.40;53.70;;;;;;487815;243;1112;-70
2021/08/12 02:45:00;;;;;;;;;;;24.70;53.50;;;;;;487904;244;1068;-69
2021/08/12 02:47:03;;;;;;;;;;;24.70;53.40;;;;;;487899;244;1227;-69
2021/08/12 02:49:03;;;;;;;;;;;24.60;53.30;;;;;;487934;244;1333;-69
2021/08/12 02:51:04;;;;;;;;;;;24.60;53.30;;;;;;487788;244;1137;-69
2021/08/12 02:53:05;;;;;;;;;;;24.70;53.10;;;;;;487881;243;2202;-69
2021/08/12 02:55:07;;;;;;;;;;;24.40;53.40;;;;;;487951;243;1056;-70
2021/08/12 02:57:08;;;;;;;;;;;24.60;53.40;;;;;;487982;243;1279;-69
2021/08/12 02:59:10;;;;;;;;;;;24.60;53.30;;;;;;488066;243;1061;-69
2021/08/12 03:01:11;;;;;;;;;;;24.60;53.40;;;;;;488288;243;1123;-69
2021/08/12 03:03:12;;;;;;;;;;;24.70;53.20;;;;;;487845;244;1195;-70
2021/08/12 03:05:14;;;;;;;;;;;24.60;53.30;;;;;;487931;244;1051;-69
2021/08/12 03:07:15;;;;;;;;;;;24.60;53.40;;;;;;487983;243;1326;-70
2021/08/12 03:09:16;;;;;;;;;;;24.60;53.40;;;;;;488029;243;1131;-69
2021/08/12 03:11:18;;;;;;;;;;;24.50;53.30;;;;;;488173;243;1142;-69
2021/08/12 03:13:19;;;;;;;;;;;24.40;53.80;;;;;;487837;244;2126;-69
2021/08/12 03:15:20;;;;;;;;;;;24.40;53.70;;;;;;488101;243;1194;-69
2021/08/12 03:17:22;;;;;;;;;;;24.40;53.80;;;;;;488248;243;1055;-69
2021/08/12 03:19:23;;;;;;;;;;;24.40;54.00;;;;;;487814;244;1178;-69
2021/08/12 03:21:24;;;;;;;;;;;24.60;53.40;;;;;;487832;244;976;-70
2021/08/12 03:23:26;;;;;;;;;;;24.60;53.50;;;;;;487893;244;1170;-69
2021/08/12 03:25:27;;;;;;;;;;;24.50;53.40;;;;;;488334;243;1074;-69
2021/08/12 03:27:28;;;;;;;;;;;24.50;53.60;;;;;;487886;243;1281;-70
2021/08/12 03:29:30;;;;;;;;;;;24.40;53.80;;;;;;488174;243;1068;-70
2021/08/12 03:31:31;;;;;;;;;;;24.60;53.60;;;;;;487858;243;2193;-69
2021/08/12 03:33:32;;;;;;;;;;;24.30;53.50;;;;;;487921;244;1067;-69
2021/08/12 03:35:34;;;;;;;;;;;24.60;53.40;;;;;;488285;243;1125;-69
2021/08/12 03:37:35;;;;;;;;;;;24.50;53.60;;;;;;487945;243;1224;-69
2021/08/12 03:39:37;;;;;;;;;;;24.20;53.80;;;;;;488129;243;1047;-70
2021/08/12 03:41:38;;;;;;;;;;;24.50;53.60;;;;;;487867;244;1048;-69
2021/08/12 03:43:39;;;;;;;;;;;24.70;53.20;;;;;;488181;243;1057;-69
2021/08/12 03:45:41;;;;;;;;;;;24.30;53.60;;;;;;487974;243;1113;-70
2021/08/12 03:47:42;;;;;;;;;;;24.60;53.50;;;;;;487878;243;1145;-69
2021/08/12 03:49:43;;;;;;;;;;;24.30;54.10;;;;;;487889;244;1044;-69
2021/08/12 03:51:45;;;;;;;;;;;24.40;53.60;;;;;;487853;243;2142;-70
2021/08/12 03:53:46;;;;;;;;;;;24.70;53.30;;;;;;487911;244;1137;-70
2021/08/12 03:55:47;;;;;;;;;;;24.30;54.10;;;;;;487852;243;1095;-70
2021/08/12 03:57:49;;;;;;;;;;;24.40;53.60;;;;;;487939;243;1035;-69
2021/08/12 03:59:50;;;;;;;;;;;24.40;53.60;;;;;;487890;244;1052;-69
2021/08/12 04:01:51;;;;;;;;;;;24.70;53.10;;;;;;487806;244;1236;-69
2021/08/12 04:03:52;;;;;;;;;;;24.40;53.50;;;;;;487991;243;1235;-69
2021/08/12 04:05:54;;;;;;;;;;;24.60;53.20;;;;;;487778;244;1122;-69
2021/08/12 04:07:55;;;;;;;;;;;24.60;53.30;;;;;;488084;243;1167;-69
2021/08/12 04:09:56;;;;;;;;;;;24.40;53.50;;;;;;487845;244;1063;-69
2021/08/12 04:11:58;;;;;;;;;;;24.60;53.20;;;;;;487831;244;2157;-69
2021/08/12 04:13:59;;;;;;;;;;;24.00;54.20;;;;;;488206;243;1077;-69
2021/08/12 04:16:00;;;;;;;;;;;24.40;53.70;;;;;;488285;243;1382;-69
2021/08/12 04:18:02;;;;;;;;;;;24.60;53.30;;;;;;488309;243;1105;-69
2021/08/12 04:20:03;;;;;;;;;;;24.40;53.80;;;;;;487931;243;1026;-69
2021/08/12 04:22:04;;;;;;;;;;;24.60;53.20;;;;;;488287;243;1272;-69
2021/08/12 04:24:06;;;;;;;;;;;24.90;52.60;;;;;;487888;243;1234;-69
2021/08/12 04:26:07;;;;;;;;;;;24.80;52.80;;;;;;488154;243;1194;-69
2021/08/12 04:28:08;;;;;;;;;;;24.60;52.70;;;;;;488154;243;1071;-69
2021/08/12 04:30:10;;;;;;;;;;;24.70;53.00;;;;;;487927;243;1030;-69
2021/08/12 04:32:11;;;;;;;;;;;24.60;53.20;;;;;;488185;243;2202;-69
2021/08/12 04:34:12;;;;;;;;;;;24.60;53.00;;;;;;488184;243;1065;-69
2021/08/12 04:36:14;;;;;;;;;;;24.70;53.00;;;;;;487728;244;1306;-69
2021/08/12 04:38:15;;;;;;;;;;;24.60;53.00;;;;;;488045;243;1150;-69
2021/08/12 04:40:17;;;;;;;;;;;24.60;52.90;;;;;;487744;244;1115;-69
2021/08/12 04:42:18;;;;;;;;;;;24.80;52.70;;;;;;487696;243;1236;-69
2021/08/12 04:44:19;;;;;;;;;;;24.80;52.80;;;;;;488159;243;1067;-69
2021/08/12 04:46:21;;;;;;;;;;;24.80;52.60;;;;;;487760;243;1201;-69
2021/08/12 04:48:22;;;;;;;;;;;24.80;52.70;;;;;;487689;244;1073;-69
2021/08/12 04:50:23;;;;;;;;;;;24.50;53.00;;;;;;487935;243;1054;-69
2021/08/12 04:52:24;;;;;;;;;;;24.40;53.40;;;;;;487738;243;2150;-69
2021/08/12 04:54:26;;;;;;;;;;;24.70;53.10;;;;;;487796;244;1213;-69
2021/08/12 04:56:27;;;;;;;;;;;24.60;53.20;;;;;;487901;243;1194;-69
2021/08/12 04:58:29;;;;;;;;;;;24.70;52.90;;;;;;487681;244;1061;-69
2021/08/12 05:00:30;;;;;;;;;;;24.70;52.90;;;;;;487678;244;1038;-69
2021/08/12 05:02:31;;;;;;;;;;;24.60;53.10;;;;;;487661;243;1211;-69
2021/08/12 05:04:32;;;;;;;;;;;24.70;52.90;;;;;;488108;243;1185;-69
2021/08/12 05:06:34;;;;;;;;;;;24.90;52.60;;;;;;487677;243;1366;-70
2021/08/12 05:08:35;;;;;;;;;;;24.80;52.70;;;;;;487730;244;1138;-70
2021/08/12 05:10:37;;;;;;;;;;;24.80;52.70;;;;;;487778;243;1276;-69
2021/08/12 05:12:38;;;;;;;;;;;24.80;52.80;;;;;;488158;243;2198;-69
2021/08/12 05:14:39;;;;;;;;;;;24.80;53.00;;;;;;487676;243;1085;-69
2021/08/12 05:16:41;;;;;;;;;;;24.70;52.90;;;;;;487543;244;1152;-69
2021/08/12 05:18:42;;;;;;;;;;;24.80;52.80;;;;;;487563;243;1046;-69
2021/08/12 05:20:43;;;;;;;;;;;24.70;53.10;;;;;;487571;244;1063;-69
2021/08/12 05:22:45;;;;;;;;;;;24.60;53.00;;;;;;487592;244;1061;-69
2021/08/12 05:24:46;;;;;;;;;;;24.80;52.80;;;;;;487534;244;1152;-69
2021/08/12 05:26:47;;;;;;;;;;;24.70;52.90;;;;;;487689;243;1083;-69
2021/08/12 05:28:48;;;;;;;;;;;24.80;53.00;;;;;;488075;243;1066;-70
2021/08/12 05:30:50;;;;;;;;;;;24.50;53.50;;;;;;487789;243;1088;-70
2021/08/12 05:32:51;;;;;;;;;;;24.40;54.00;;;;;;487599;243;2221;-70
2021/08/12 05:34:52;;;;;;;;;;;24.30;53.90;;;;;;487683;244;1093;-69
2021/08/12 05:36:54;;;;;;;;;;;24.50;53.60;;;;;;487606;243;1342;-69
2021/08/12 05:38:58;;;;;;;;;;;24.10;54.10;;;;;;487897;243;1113;-69
2021/08/12 05:40:57;;;;;;;;;;;24.10;54.30;;;;;;487387;244;1668;-69
2021/08/12 05:42:58;;;;;;;;;;;24.50;53.80;;;;;;487512;243;1117;-69
2021/08/12 05:44:59;;;;;;;;;;;24.30;54.50;;;;;;487536;243;1071;-69
2021/08/12 05:47:01;;;;;;;;;;;24.30;54.00;;;;;;487484;243;1345;-69
2021/08/12 05:49:02;;;;;;;;;;;24.50;53.90;;;;;;487514;244;1114;-69
2021/08/12 05:51:03;;;;;;;;;;;24.30;54.40;;;;;;487803;243;1125;-69
2021/08/12 05:53:05;;;;;;;;;;;24.20;54.10;;;;;;487470;244;2189;-69
2021/08/12 05:55:06;;;;;;;;;;;24.60;53.60;;;;;;487496;243;1100;-69
2021/08/12 05:57:07;;;;;;;;;;;24.30;54.00;;;;;;487319;244;1167;-70
2021/08/12 05:59:09;;;;;;;;;;;24.60;53.60;;;;;;487538;244;1178;-69
2021/08/12 06:01:10;;;;;;;;;;;24.70;53.30;;;;;;487501;244;1444;-69
2021/08/12 06:03:11;;;;;;;;;;;24.60;53.60;;;;;;487837;243;1181;-69
2021/08/12 06:05:13;;;;;;;;;;;24.20;54.20;;;;;;487731;243;1039;-69
2021/08/12 06:07:14;;;;;;;;;;;24.60;53.80;;;;;;487718;243;1251;-70
2021/08/12 06:09:16;;;;;;;;;;;24.40;54.20;;;;;;487578;244;1231;-70
2021/08/12 06:11:17;;;;;;;;;;;24.10;54.30;;;;;;487869;243;1249;-70
2021/08/12 06:13:18;;;;;;;;;;;24.60;53.80;;;;;;487579;243;2189;-69
2021/08/12 06:15:20;;;;;;;;;;;24.20;54.70;;;;;;487268;244;1271;-70
2021/08/12 06:17:21;;;;;;;;;;;24.30;54.20;;;;;;487289;243;1190;-70
2021/08/12 06:19:22;;;;;;;;;;;24.20;54.80;;;;;;487619;243;1308;-69
2021/08/12 06:21:24;;;;;;;;;;;24.30;54.70;;;;;;487464;243;1096;-70
2021/08/12 06:23:25;;;;;;;;;;;23.90;55.00;;;;;;487513;244;1104;-70
2021/08/12 06:25:26;;;;;;;;;;;24.30;54.20;;;;;;487532;244;1169;-70
2021/08/12 06:27:27;;;;;;;;;;;24.60;54.00;;;;;;487548;243;1154;-70
2021/08/12 06:29:29;;;;;;;;;;;24.30;54.30;;;;;;487672;243;1097;-69
2021/08/12 06:31:30;;;;;;;;;;;24.40;53.80;;;;;;487388;244;1083;-69
2021/08/12 06:33:31;;;;;;;;;;;23.90;54.70;;;;;;487387;244;2135;-69
2021/08/12 06:35:34;;;;;;;;;;;24.00;54.80;;;;;;487484;244;1161;-69
2021/08/12 06:37:34;;;;;;;;;;;23.90;55.30;;;;;;487271;244;1402;-69
2021/08/12 06:39:35;;;;;;;;;;;23.80;55.20;;;;;;487322;243;1152;-69
2021/08/12 06:41:37;;;;;;;;;;;24.30;54.10;;;;;;487269;243;1089;-69
2021/08/12 06:43:38;;;;;;;;;;;24.20;54.20;;;;;;487438;243;1167;-69
2021/08/12 06:45:39;;;;;;;;;;;23.90;54.40;;;;;;487257;243;1094;-69
2021/08/12 06:47:41;;;;;;;;;;;23.90;54.50;;;;;;487454;243;1052;-69
2021/08/12 06:49:42;;;;;;;;;;;24.00;54.30;;;;;;487246;243;1069;-70
2021/08/12 06:51:43;;;;;;;;;;;23.70;55.00;;;;;;487146;243;1159;-70
2021/08/12 06:53:45;;;;;;;;;;;23.70;55.00;;;;;;487328;243;2194;-69
2021/08/12 06:55:46;;;;;;;;;;;23.90;54.90;;;;;;487199;243;1095;-70
2021/08/12 06:57:47;;;;;;;;;;;23.80;55.10;;;;;;487174;243;1140;-69
2021/08/12 06:59:49;;;;;;;;;;;24.00;54.40;;;;;;487150;244;1094;-70
2021/08/12 07:01:50;;;;;;;;;;;24.10;54.10;;;;;;487066;244;1334;-69
2021/08/12 07:03:54;;;;;;;;;;;23.80;54.60;;;;;;487290;243;1139;-69
2021/08/12 07:05:53;;;;;;;;;;;23.90;54.30;;;;;;486961;244;1372;-69
2021/08/12 07:07:54;;;;;;;;;;;24.00;54.30;;;;;;487191;244;1194;-69
2021/08/12 07:09:55;;;;;;;;;;;23.60;54.90;;;;;;487015;244;1141;-69
2021/08/12 07:11:57;;;;;;;;;;;23.80;54.70;;;;;;487035;244;1121;-70
2021/08/12 07:13:58;;;;;;;;;;;23.80;54.70;;;;;;487301;243;2189;-70
2021/08/12 07:16:00;;;;;;;;;;;23.80;54.70;;;;;;487283;244;1083;-70
2021/08/12 07:18:01;;;;;;;;;;;23.90;54.40;;;;;;487320;244;1371;-69
2021/08/12 07:20:03;;;;;;;;;;;23.90;54.80;;;;;;487195;243;1051;-69
2021/08/12 07:22:04;;;;;;;;;;;23.70;54.70;;;;;;487109;243;1182;-70
2021/08/12 07:24:05;;;;;;;;;;;23.90;54.50;;;;;;487147;243;1464;-70
2021/08/12 07:26:09;;;;;;;;;;;23.80;54.60;;;;;;487099;243;1220;-70
2021/08/12 07:28:11;;;;;;;;;;;23.70;55.00;;;;;;487012;244;1432;-69
2021/08/12 07:30:09;;;;;;;;;;;23.90;54.40;;;;;;487006;244;1333;-70
2021/08/12 07:32:11;;;;;;;;;;;23.90;54.50;;;;;;487116;244;1357;-70
2021/08/12 07:34:12;;;;;;;;;;;23.90;54.30;;;;;;487124;243;2193;-70
2021/08/12 07:36:13;;;;;;;;;;;23.90;54.20;;;;;;487059;243;1169;-70
2021/08/12 07:38:15;;;;;;;;;;;23.80;54.60;;;;;;486945;243;1045;-69
2021/08/12 07:40:16;;;;;;;;;;;23.60;55.20;;;;;;486923;243;1153;-70
2021/08/12 07:42:19;;;;;;;;;;;23.50;55.00;;;;;;486867;244;1210;-70
2021/08/12 07:44:20;;;;;;;;;;;23.80;55.00;;;;;;486801;244;1090;-70
2021/08/12 07:46:22;;;;;;;;;;;23.60;55.30;;;;;;486796;243;1230;-70
2021/08/12 07:48:23;;;;;;;;;;;23.40;55.80;;;;;;486865;243;1058;-70
2021/08/12 07:50:24;;;;;;;;;;;23.20;56.60;;;;;;486971;244;1039;-70
2021/08/12 07:52:26;;;;;;;;;;;23.10;57.00;;;;;;487013;243;1087;-70
2021/08/12 07:54:27;;;;;;;;;;;23.20;57.20;;;;;;486843;243;2131;-70
2021/08/12 07:56:28;;;;;;;;;;;23.40;57.00;;;;;;486799;243;1442;-70
2021/08/12 07:58:30;;;;;;;;;;;23.40;56.80;;;;;;486896;243;1070;-70
2021/08/12 08:00:32;;;;;;;;;;;23.70;56.00;;;;;;486706;243;1084;-70
2021/08/12 08:02:32;;;;;;;;;;;23.70;56.00;;;;;;486895;244;1338;-69
2021/08/12 08:04:34;;;;;;;;;;;23.40;56.40;;;;;;486964;243;1265;-70
2021/08/12 08:06:35;;;;;;;;;;;23.50;56.10;;;;;;486840;244;1401;-70
2021/08/12 08:08:36;;;;;;;;;;;23.30;56.70;;;;;;486924;244;1027;-69
2021/08/12 08:10:37;;;;;;;;;;;23.40;56.50;;;;;;486941;243;1117;-70
2021/08/12 08:12:40;;;;;;;;;;;23.30;56.60;;;;;;486902;243;1057;-69
2021/08/12 08:14:40;;;;;;;;;;;23.30;56.60;;;;;;486735;244;2185;-70
2021/08/12 08:16:42;;;;;;;;;;;23.20;56.50;;;;;;486833;244;1378;-70
2021/08/12 08:18:43;;;;;;;;;;;23.50;56.30;;;;;;486861;244;1402;-70
2021/08/12 08:20:44;;;;;;;;;;;23.40;56.50;;;;;;486919;243;1026;-69
2021/08/12 08:22:46;;;;;;;;;;;23.10;56.50;;;;;;486723;244;1122;-69
2021/08/12 08:24:47;;;;;;;;;;;23.50;55.80;;;;;;486780;243;1098;-69
2021/08/12 08:26:49;;;;;;;;;;;23.20;56.50;;;;;;486713;243;1220;-69
2021/08/12 08:28:50;;;;;;;;;;;23.60;55.50;;;;;;486728;244;1101;-69
2021/08/12 08:30:51;;;;;;;;;;;23.60;55.60;;;;;;486714;243;1086;-69
2021/08/12 08:32:53;;;;;;;;;;;23.50;56.10;;;;;;486820;243;1308;-69
2021/08/12 08:34:54;;;;;;;;;;;23.40;56.00;;;;;;486845;244;2139;-70
2021/08/12 08:36:55;;;;;;;;;;;23.10;56.30;;;;;;486829;244;1530;-69
2021/08/12 08:38:57;;;;;;;;;;;22.70;57.70;;;;;;487006;243;1129;-69
2021/08/12 08:40:58;;;;;;;;;;;22.50;58.50;;;;;;486797;243;1166;-70
2021/08/12 08:42:59;;;;;;;;;;;22.30;58.80;;;;;;486814;243;1377;-70
2021/08/12 08:45:00;;;;;;;;;;;22.20;59.20;;;;;;486857;243;1058;-70
2021/08/12 08:47:02;;;;;;;;;;;22.20;59.50;;;;;;486832;244;1190;-69
2021/08/12 08:49:03;;;;;;;;;;;22.20;59.50;;;;;;486856;244;1089;-70
2021/08/12 08:51:05;;;;;;;;;;;22.20;59.70;;;;;;486886;243;1108;-70
2021/08/12 08:53:06;;;;;;;;;;;22.10;59.70;;;;;;486903;244;1812;-69
2021/08/12 08:55:07;;;;;;;;;;;22.10;59.70;;;;;;486662;243;2210;-69
2021/08/12 08:57:08;;;;;;;;;;;22.10;59.80;;;;;;486632;243;1120;-69
2021/08/12 08:59:10;;;;;;;;;;;22.00;59.80;;;;;;486713;244;1064;-70
2021/08/12 09:01:11;;;;;;;;;;;22.00;59.80;;;;;;486662;244;1380;-69
2021/08/12 09:03:12;;;;;;;;;;;22.00;59.90;;;;;;486701;244;1108;-70
2021/08/12 09:05:14;;;;;;;;;;;22.00;59.80;;;;;;486648;244;1091;-70
2021/08/12 09:07:15;;;;;;;;;;;21.90;60.00;;;;;;486579;243;1081;-70
2021/08/12 09:09:16;;;;;;;;;;;21.90;60.00;;;;;;486705;243;1071;-69
2021/08/12 09:11:18;;;;;;;;;;;21.90;60.00;;;;;;486733;243;1221;-69
2021/08/12 09:13:19;;;;;;;;;;;22.00;60.00;;;;;;486724;244;1082;-69
2021/08/12 09:15:21;;;;;;;;;;;21.90;60.00;;;;;;486766;243;2178;-70
2021/08/12 09:17:22;;;;;;;;;;;21.90;60.00;;;;;;487197;244;1272;-70
2021/08/12 09:19:24;;;;;;;;;;;21.90;60.10;;;;;;487606;243;951;-70
2021/08/12 09:21:25;;;;;;;;;;;21.90;60.10;;;;;;487295;244;1320;-69
2021/08/12 09:23:26;;;;;;;;;;;21.90;60.10;;;;;;487295;243;805;-69
2021/08/12 09:25:27;;;;;;;;;;;21.90;60.00;;;;;;487267;243;783;-69
2021/08/12 09:27:28;;;;;;;;;;;22.10;59.70;;;;;;486712;243;1315;-69
2021/08/12 09:29:30;;;;;;;;;;;22.30;59.30;;;;;;487207;243;859;-69
2021/08/12 09:31:31;;;;;;;;;;;23.10;57.50;;;;;;486918;243;1095;-69
2021/08/12 09:33:32;;;;;;;;;;;23.40;56.10;;;;;;487294;243;746;-69
2021/08/12 09:35:34;;;;;;;;;;;23.70;55.10;;;;;;486841;244;2246;-69
2021/08/12 09:37:35;;;;;;;;;;;24.00;54.40;;;;;;487298;243;1403;-69
2021/08/12 09:39:36;;;;;;;;;;;24.20;53.90;;;;;;486793;244;729;-69
2021/08/12 09:41:38;;;;;;;;;;;24.20;53.50;;;;;;486682;244;1223;-69
2021/08/12 09:43:39;;;;;;;;;;;24.30;53.50;;;;;;486870;244;831;-69
2021/08/12 09:45:41;;;;;;;;;;;24.40;53.20;;;;;;487309;243;1250;-69
2021/08/12 09:47:44;;;;;;;;;;;24.30;53.20;;;;;;486955;244;856;-69
2021/08/12 09:49:45;;;;;;;;;;;24.40;53.10;;;;;;487455;243;807;-69
2021/08/12 09:51:46;;;;;;;;;;;23.70;54.10;;;;;;487435;243;1146;-69
2021/08/12 09:53:47;;;;;;;;;;;23.00;56.20;;;;;;487426;243;2205;-69
2021/08/12 09:55:50;;;;;;;;;;;22.60;57.60;;;;;;487330;243;1522;-69
2021/08/12 09:57:51;;;;;;;;;;;22.40;58.30;;;;;;486819;244;1216;-69
2021/08/12 09:59:51;;;;;;;;;;;22.30;58.70;;;;;;487445;243;759;-69
2021/08/12 10:01:53;;;;;;;;;;;22.10;59.10;;;;;;487455;243;1242;-69
2021/08/12 10:03:54;;;;;;;;;;;22.10;59.20;;;;;;487122;244;844;-69
2021/08/12 10:05:55;;;;;;;;;;;22.00;59.50;;;;;;487148;244;1421;-69
2021/08/12 10:07:57;;;;;;;;;;;22.00;59.60;;;;;;487149;244;1260;-69
2021/08/12 10:09:58;;;;;;;;;;;22.00;59.70;;;;;;486957;244;918;-69
2021/08/12 10:11:59;;;;;;;;;;;22.00;59.80;;;;;;486898;244;1149;-69
2021/08/12 10:14:01;;;;;;;;;;;21.90;59.80;;;;;;487534;243;2202;-70
2021/08/12 10:16:02;;;;;;;;;;;21.90;59.80;;;;;;487147;243;1339;-69
2021/08/12 10:18:03;;;;;;;;;;;21.90;59.80;;;;;;486958;244;1069;-69
2021/08/12 10:20:05;;;;;;;;;;;21.90;59.90;;;;;;486941;244;798;-69
2021/08/12 10:22:06;;;;;;;;;;;21.90;60.00;;;;;;486950;244;1118;-69
2021/08/12 10:24:07;;;;;;;;;;;21.90;60.00;;;;;;487056;244;812;-69
2021/08/12 10:26:09;;;;;;;;;;;21.90;60.00;;;;;;487528;243;1086;-69
2021/08/12 10:28:10;;;;;;;;;;;22.20;59.30;;;;;;487126;243;1082;-70
2021/08/12 10:30:11;;;;;;;;;;;22.30;58.90;;;;;;487405;243;1037;-69
2021/08/12 10:32:12;;;;;;;;;;;23.00;57.10;;;;;;487429;243;1361;-70
2021/08/12 10:34:14;;;;;;;;;;;23.60;55.50;;;;;;487069;244;2183;-69
2021/08/12 10:36:15;;;;;;;;;;;23.90;54.60;;;;;;487443;243;1335;-69
2021/08/12 10:38:16;;;;;;;;;;;24.10;53.90;;;;;;486908;244;1047;-69
2021/08/12 10:40:18;;;;;;;;;;;24.30;53.40;;;;;;487190;244;839;-69
2021/08/12 10:42:19;;;;;;;;;;;24.30;53.20;;;;;;486982;244;1052;-69
2021/08/12 10:44:20;;;;;;;;;;;24.50;52.90;;;;;;487677;243;780;-69
2021/08/12 10:46:22;;;;;;;;;;;24.60;52.60;;;;;;487006;244;1268;-69
2021/08/12 10:48:24;;;;;;;;;;;24.50;52.70;;;;;;487659;243;889;-69
2021/08/12 10:50:26;;;;;;;;;;;24.60;52.40;;;;;;487578;243;784;-69
2021/08/12 10:52:26;;;;;;;;;;;24.70;52.10;;;;;;486998;244;1300;-69
2021/08/12 10:54:28;;;;;;;;;;;24.60;52.20;;;;;;487238;244;2505;-69
2021/08/12 10:56:29;;;;;;;;;;;24.80;51.90;;;;;;487374;243;1154;-69
2021/08/12 10:58:30;;;;;;;;;;;24.70;52.00;;;;;;487030;244;1092;-69
2021/08/12 11:00:32;;;;;;;;;;;24.60;52.10;;;;;;487111;244;1833;-69
2021/08/12 11:02:33;;;;;;;;;;;24.60;52.20;;;;;;486965;244;1914;-70
2021/08/12 11:04:35;;;;;;;;;;;24.70;52.20;;;;;;487486;243;790;-70
2021/08/12 11:06:36;;;;;;;;;;;24.70;52.10;;;;;;487542;244;1410;-70
2021/08/12 11:08:37;;;;;;;;;;;24.70;52.10;;;;;;487241;244;849;-69
2021/08/12 11:10:38;;;;;;;;;;;24.70;52.10;;;;;;487076;244;1174;-69
2021/08/12 11:12:40;;;;;;;;;;;24.60;52.30;;;;;;487456;243;1077;-69
2021/08/12 11:14:41;;;;;;;;;;;24.70;52.10;;;;;;487173;244;2202;-70
2021/08/12 11:16:42;;;;;;;;;;;24.60;52.20;;;;;;487548;243;1191;-69
2021/08/12 11:18:44;;;;;;;;;;;24.60;52.10;;;;;;487190;244;777;-69
2021/08/12 11:20:45;;;;;;;;;;;24.80;51.80;;;;;;487178;244;1090;-69
2021/08/12 11:22:46;;;;;;;;;;;24.70;52.20;;;;;;487122;244;745;-69
2021/08/12 11:24:47;;;;;;;;;;;24.70;52.00;;;;;;487480;243;831;-69
2021/08/12 11:26:49;;;;;;;;;;;24.90;51.90;;;;;;487449;243;863;-69
2021/08/12 11:28:51;;;;;;;;;;;24.90;51.70;;;;;;486937;244;1085;-69
2021/08/12 11:30:52;;;;;;;;;;;24.60;52.20;;;;;;487355;243;781;-70
2021/08/12 11:32:53;;;;;;;;;;;24.80;52.10;;;;;;487373;243;860;-70
2021/08/12 11:34:54;;;;;;;;;;;24.90;51.90;;;;;;487456;243;2202;-70
2021/08/12 11:36:56;;;;;;;;;;;24.80;51.90;;;;;;486927;244;860;-70
2021/08/12 11:38:57;;;;;;;;;;;24.90;51.80;;;;;;487615;243;821;-70
2021/08/12 11:40:58;;;;;;;;;;;24.90;51.90;;;;;;487690;243;837;-70
2021/08/12 11:43:00;;;;;;;;;;;24.90;52.00;;;;;;487175;244;1099;-70
2021/08/12 11:45:01;;;;;;;;;;;24.90;51.90;;;;;;487562;243;1401;-70
2021/08/12 11:47:02;;;;;;;;;;;24.90;51.90;;;;;;487074;244;849;-70
2021/08/12 11:49:04;;;;;;;;;;;24.70;52.30;;;;;;487359;243;972;-70
2021/08/12 11:51:05;;;;;;;;;;;24.90;51.80;;;;;;486986;244;843;-70
2021/08/12 11:53:06;;;;;;;;;;;24.90;51.80;;;;;;487475;243;991;-70
2021/08/12 11:55:07;;;;;;;;;;;24.90;51.90;;;;;;487320;244;2205;-69
2021/08/12 11:57:09;;;;;;;;;;;25.00;51.60;;;;;;487771;243;828;-69